Flight Track Log - Related Links

Times and Time Zones

All times are in EDT time to prevent confusion due to time zone crossing. See the TAM3221 flight status page for this flight to view local times or setup timezone preferences in your user account.

Time Position Orientation Groundspeed Altitude Reporting Facility
EDT Latitude Longitude Course Direction KTS MPH feet Rate Location/Type
Sun 08:02:00 PM -21.3102 -45.0753 212° Southwest  Level Estimated
Sun 08:03:00 PM -21.3829 -45.1240 212° Southwest  Level Estimated
Sun 08:04:00 PM -21.4556 -45.1727 212° Southwest  Level Estimated
Sun 08:05:00 PM -21.5283 -45.2215 212° Southwest  Level Estimated
Sun 08:06:00 PM -21.6010 -45.2703 212° Southwest  Level Estimated
Sun 08:07:00 PM -21.6737 -45.3191 212° Southwest  Level Estimated
Sun 08:08:00 PM -21.7463 -45.3680 212° Southwest  Level Estimated
Sun 08:09:00 PM -21.8190 -45.4170 212° Southwest  Level Estimated
Sun 08:10:00 PM -21.8916 -45.4660 212° Southwest  Level Estimated
Sun 08:11:00 PM -21.9642 -45.5151 212° Southwest  Level Estimated
Sun 08:12:00 PM -22.0368 -45.5642 212° Southwest  Level Estimated
Sun 08:13:00 PM -22.1094 -45.6133 212° Southwest  Level Estimated
Sun 08:14:00 PM -22.1819 -45.6625 212° Southwest  Level Estimated
Sun 08:15:00 PM -22.2545 -45.7118 212° Southwest  Level Estimated
Sun 08:16:00 PM -22.3270 -45.7611 212° Southwest  Level Estimated
Sun 08:17:00 PM -22.3995 -45.8105 212° Southwest  Level Estimated
Sun 08:18:00 PM -22.4721 -45.8599 212° Southwest  Level Estimated
Sun 08:19:00 PM -22.5445 -45.9094 212° Southwest  Level Estimated
Sun 08:20:00 PM -22.6170 -45.9589 212° Southwest  Level Estimated
Sun 08:21:00 PM -22.6895 -46.0084 212° Southwest  Level Estimated
Sun 08:22:00 PM -22.7619 -46.0581 212° Southwest  Level Estimated
Sun 08:23:00 PM -22.8344 -46.1077 212° Southwest  Level Estimated
Sun 08:24:00 PM -22.9068 -46.1575 212° Southwest  Level Estimated
Sun 08:25:00 PM -22.9792 -46.2073 212° Southwest  Level Estimated
Sun 08:26:00 PM -23.0516 -46.2571 212° Southwest  Level Estimated
Sun 08:27:00 PM -23.1239 -46.3070 212° Southwest  Level Estimated
Sun 08:28:00 PM -23.1963 -46.3569 212° Southwest  Level Estimated
Sun 08:29:00 PM -23.2686 -46.4069 212° Southwest  Level Estimated
Sun 08:30:00 PM -23.3410 -46.4570 212° Southwest  Level Estimated
Sun 08:31:00 PM -23.4133 -46.5071 212° Southwest  Level Estimated
Sun 08:32:00 PM -23.4855 -46.5573 212° Southwest  Level Estimated
Sun 08:33:00 PM -23.5578 -46.6075 212° Southwest  Level Estimated
Sun 08:34:00 PM -23.6267 -46.6554 213° Southwest  Level Estimated
Sun 08:35:00 PM -23.6267 -46.6554 114° Southeast  Level Estimated
Sun 08:36:00 PM -23.6267 -46.6554 114° Southeast  Level Estimated
Sun 08:37:00 PM -23.6267 -46.6554 114° Southeast  Level Estimated
Sun 08:38:00 PM -23.6267 -46.6554 114° Southeast  Level Estimated
Sun 08:39:00 PM -23.6267 -46.6554 114° Southeast  Level Estimated
Sun 08:40:00 PM -23.6267 -46.6554 114° Southeast  Level Estimated
Sun 08:41:00 PM -23.6267 -46.6554 114° Southeast  Level Estimated
Sun 08:42:00 PM -23.6267 -46.6554 114° Southeast  Level Estimated
Sun 08:43:00 PM -23.6267 -46.6554 114° Southeast  Level Estimated
Sun 08:44:00 PM -23.6267 -46.6554 114° Southeast  Level Estimated
Sun 08:45:00 PM -23.6267 -46.6554 114° Southeast  Level Estimated
Sun 08:46:00 PM -23.6267 -46.6554 114° Southeast  Level Estimated
Sun 08:47:00 PM -23.6267 -46.6554 114° Southeast  Level Estimated
Sun 08:48:00 PM -23.6267 -46.6554 114° Southeast  Level Estimated
Sun 08:49:00 PM -23.6267 -46.6554 114° Southeast  Level Estimated
Sun 08:50:00 PM -23.6267 -46.6554 114° Southeast  Level Estimated

Login

Don't have an account? Register now (free) for customized features, flight alerts, and more!